sensor_id;sensor_type;location;lat;lon;timestamp;temperature;humidity
32139;DHT22;18644;48.700;9.210;2023-06-04T00:02:15;16.60;47.20
32139;DHT22;18644;48.700;9.210;2023-06-04T00:04:43;16.60;47.20
32139;DHT22;18644;48.700;9.210;2023-06-04T00:07:10;16.50;47.40
32139;DHT22;18644;48.700;9.210;2023-06-04T00:09:37;16.50;47.40
32139;DHT22;18644;48.700;9.210;2023-06-04T00:12:04;16.40;47.50
32139;DHT22;18644;48.700;9.210;2023-06-04T00:14:32;16.40;47.70
32139;DHT22;18644;48.700;9.210;2023-06-04T00:16:59;16.30;47.60
32139;DHT22;18644;48.700;9.210;2023-06-04T00:19:26;16.30;47.80
32139;DHT22;18644;48.700;9.210;2023-06-04T00:21:54;16.30;47.80
32139;DHT22;18644;48.700;9.210;2023-06-04T00:24:21;16.20;47.90
32139;DHT22;18644;48.700;9.210;2023-06-04T00:26:48;16.20;48.10
32139;DHT22;18644;48.700;9.210;2023-06-04T00:29:15;16.10;48.20
32139;DHT22;18644;48.700;9.210;2023-06-04T00:31:41;16.10;48.30
32139;DHT22;18644;48.700;9.210;2023-06-04T00:34:10;16.10;48.40
32139;DHT22;18644;48.700;9.210;2023-06-04T00:36:36;16.00;48.50
32139;DHT22;18644;48.700;9.210;2023-06-04T00:39:05;16.00;48.50
32139;DHT22;18644;48.700;9.210;2023-06-04T00:41:32;15.90;48.60
32139;DHT22;18644;48.700;9.210;2023-06-04T00:43:58;15.90;48.70
32139;DHT22;18644;48.700;9.210;2023-06-04T00:46:27;15.80;48.80
32139;DHT22;18644;48.700;9.210;2023-06-04T00:48:56;15.80;48.80
32139;DHT22;18644;48.700;9.210;2023-06-04T00:51:23;15.70;48.90
32139;DHT22;18644;48.700;9.210;2023-06-04T00:53:51;15.60;49.00
32139;DHT22;18644;48.700;9.210;2023-06-04T00:56:20;15.60;49.00
32139;DHT22;18644;48.700;9.210;2023-06-04T00:58:47;15.50;49.20
32139;DHT22;18644;48.700;9.210;2023-06-04T01:01:20;15.50;49.30
32139;DHT22;18644;48.700;9.210;2023-06-04T01:03:55;15.50;49.50
32139;DHT22;18644;48.700;9.210;2023-06-04T01:06:28;15.40;49.30
32139;DHT22;18644;48.700;9.210;2023-06-04T01:08:59;15.40;49.60
32139;DHT22;18644;48.700;9.210;2023-06-04T01:11:33;15.30;49.50
32139;DHT22;18644;48.700;9.210;2023-06-04T01:14:01;15.30;49.70
32139;DHT22;18644;48.700;9.210;2023-06-04T01:16:34;15.20;49.60
32139;DHT22;18644;48.700;9.210;2023-06-04T01:19:11;15.20;49.70
32139;DHT22;18644;48.700;9.210;2023-06-04T01:21:47;15.20;49.90
32139;DHT22;18644;48.700;9.210;2023-06-04T01:24:17;15.10;50.00
32139;DHT22;18644;48.700;9.210;2023-06-04T01:26:49;15.10;50.00
32139;DHT22;18644;48.700;9.210;2023-06-04T01:29:17;15.00;50.00
32139;DHT22;18644;48.700;9.210;2023-06-04T01:31:44;15.00;50.10
32139;DHT22;18644;48.700;9.210;2023-06-04T01:34:11;15.00;50.80
32139;DHT22;18644;48.700;9.210;2023-06-04T01:36:38;15.00;50.20
32139;DHT22;18644;48.700;9.210;2023-06-04T01:39:05;14.90;50.90
32139;DHT22;18644;48.700;9.210;2023-06-04T01:41:32;14.80;50.30
32139;DHT22;18644;48.700;9.210;2023-06-04T01:44:00;14.90;50.40
32139;DHT22;18644;48.700;9.210;2023-06-04T01:46:27;14.80;50.30
32139;DHT22;18644;48.700;9.210;2023-06-04T01:48:54;14.80;50.40
32139;DHT22;18644;48.700;9.210;2023-06-04T01:51:21;14.70;50.50
32139;DHT22;18644;48.700;9.210;2023-06-04T01:53:48;14.70;50.50
32139;DHT22;18644;48.700;9.210;2023-06-04T01:56:15;14.60;51.20
32139;DHT22;18644;48.700;9.210;2023-06-04T01:58:42;14.60;50.70
32139;DHT22;18644;48.700;9.210;2023-06-04T02:01:11;14.60;50.80
32139;DHT22;18644;48.700;9.210;2023-06-04T02:03:37;14.60;50.90
32139;DHT22;18644;48.700;9.210;2023-06-04T02:06:06;14.50;50.90
32139;DHT22;18644;48.700;9.210;2023-06-04T02:08:33;14.50;51.00
32139;DHT22;18644;48.700;9.210;2023-06-04T02:11:00;14.40;51.00
32139;DHT22;18644;48.700;9.210;2023-06-04T02:13:27;14.40;51.10
32139;DHT22;18644;48.700;9.210;2023-06-04T02:15:55;14.40;51.20
32139;DHT22;18644;48.700;9.210;2023-06-04T02:18:23;14.30;51.20
32139;DHT22;18644;48.700;9.210;2023-06-04T02:20:50;14.30;51.40
32139;DHT22;18644;48.700;9.210;2023-06-04T02:23:18;14.30;51.40
32139;DHT22;18644;48.700;9.210;2023-06-04T02:25:46;14.20;51.40
32139;DHT22;18644;48.700;9.210;2023-06-04T02:28:15;14.20;51.40
32139;DHT22;18644;48.700;9.210;2023-06-04T02:30:43;14.20;51.50
32139;DHT22;18644;48.700;9.210;2023-06-04T02:33:10;14.10;51.50
32139;DHT22;18644;48.700;9.210;2023-06-04T02:35:38;14.10;51.50
32139;DHT22;18644;48.700;9.210;2023-06-04T02:38:06;14.00;51.60
32139;DHT22;18644;48.700;9.210;2023-06-04T02:40:33;14.00;51.60
32139;DHT22;18644;48.700;9.210;2023-06-04T02:43:00;14.00;51.70
32139;DHT22;18644;48.700;9.210;2023-06-04T02:45:27;13.90;51.70
32139;DHT22;18644;48.700;9.210;2023-06-04T02:47:54;13.90;51.70
32139;DHT22;18644;48.700;9.210;2023-06-04T02:50:21;13.90;52.00
32139;DHT22;18644;48.700;9.210;2023-06-04T02:52:49;13.80;51.90
32139;DHT22;18644;48.700;9.210;2023-06-04T02:55:17;13.80;52.00
32139;DHT22;18644;48.700;9.210;2023-06-04T02:57:43;13.80;52.10
32139;DHT22;18644;48.700;9.210;2023-06-04T03:00:12;13.80;52.20
32139;DHT22;18644;48.700;9.210;2023-06-04T03:02:40;13.70;52.10
32139;DHT22;18644;48.700;9.210;2023-06-04T03:05:09;13.70;52.10
32139;DHT22;18644;48.700;9.210;2023-06-04T03:07:38;13.70;52.20
32139;DHT22;18644;48.700;9.210;2023-06-04T03:10:08;13.60;52.20
32139;DHT22;18644;48.700;9.210;2023-06-04T03:12:36;13.60;52.20
32139;DHT22;18644;48.700;9.210;2023-06-04T03:15:04;13.60;52.30
32139;DHT22;18644;48.700;9.210;2023-06-04T03:17:31;13.50;52.30
32139;DHT22;18644;48.700;9.210;2023-06-04T03:19:58;13.50;52.40
32139;DHT22;18644;48.700;9.210;2023-06-04T03:22:26;13.40;52.30
32139;DHT22;18644;48.700;9.210;2023-06-04T03:24:53;13.40;52.30
32139;DHT22;18644;48.700;9.210;2023-06-04T03:27:22;13.40;52.50
32139;DHT22;18644;48.700;9.210;2023-06-04T03:29:49;13.40;52.80
32139;DHT22;18644;48.700;9.210;2023-06-04T03:32:15;13.30;52.90
32139;DHT22;18644;48.700;9.210;2023-06-04T03:34:43;13.30;52.90
32139;DHT22;18644;48.700;9.210;2023-06-04T03:37:10;13.30;52.90
32139;DHT22;18644;48.700;9.210;2023-06-04T03:39:37;13.30;53.00
32139;DHT22;18644;48.700;9.210;2023-06-04T03:42:05;13.30;53.10
32139;DHT22;18644;48.700;9.210;2023-06-04T03:44:33;13.30;53.10
32139;DHT22;18644;48.700;9.210;2023-06-04T03:47:00;13.20;53.20
32139;DHT22;18644;48.700;9.210;2023-06-04T03:49:27;13.20;53.20
32139;DHT22;18644;48.700;9.210;2023-06-04T03:51:54;13.20;53.40
32139;DHT22;18644;48.700;9.210;2023-06-04T03:54:21;13.20;53.60
32139;DHT22;18644;48.700;9.210;2023-06-04T03:56:48;13.20;53.70
32139;DHT22;18644;48.700;9.210;2023-06-04T03:59:15;13.20;53.80
32139;DHT22;18644;48.700;9.210;2023-06-04T04:01:43;13.20;54.00
32139;DHT22;18644;48.700;9.210;2023-06-04T04:04:10;13.20;54.10
32139;DHT22;18644;48.700;9.210;2023-06-04T04:06:37;13.30;54.20
32139;DHT22;18644;48.700;9.210;2023-06-04T04:09:04;13.30;54.30
32139;DHT22;18644;48.700;9.210;2023-06-04T04:11:32;13.30;54.30
32139;DHT22;18644;48.700;9.210;2023-06-04T04:14:00;13.30;54.30
32139;DHT22;18644;48.700;9.210;2023-06-04T04:16:27;13.40;54.40
32139;DHT22;18644;48.700;9.210;2023-06-04T04:18:55;13.40;54.40
32139;DHT22;18644;48.700;9.210;2023-06-04T04:21:22;13.50;54.60
32139;DHT22;18644;48.700;9.210;2023-06-04T04:23:50;13.50;54.60
32139;DHT22;18644;48.700;9.210;2023-06-04T04:26:17;13.50;54.60
32139;DHT22;18644;48.700;9.210;2023-06-04T04:28:44;13.60;54.80
32139;DHT22;18644;48.700;9.210;2023-06-04T04:31:11;13.60;54.90
32139;DHT22;18644;48.700;9.210;2023-06-04T04:33:38;13.70;55.10
32139;DHT22;18644;48.700;9.210;2023-06-04T04:36:07;13.70;55.00
32139;DHT22;18644;48.700;9.210;2023-06-04T04:38:39;13.80;55.10
32139;DHT22;18644;48.700;9.210;2023-06-04T04:41:07;13.90;55.30
32139;DHT22;18644;48.700;9.210;2023-06-04T04:43:35;14.00;55.40
32139;DHT22;18644;48.700;9.210;2023-06-04T04:46:04;14.10;55.40
32139;DHT22;18644;48.700;9.210;2023-06-04T04:48:32;14.10;55.40
32139;DHT22;18644;48.700;9.210;2023-06-04T04:50:59;14.20;55.60
32139;DHT22;18644;48.700;9.210;2023-06-04T04:53:28;14.30;55.80
32139;DHT22;18644;48.700;9.210;2023-06-04T04:55:55;14.40;56.10
32139;DHT22;18644;48.700;9.210;2023-06-04T04:58:21;14.50;56.30
32139;DHT22;18644;48.700;9.210;2023-06-04T05:00:49;14.60;56.40
32139;DHT22;18644;48.700;9.210;2023-06-04T05:03:16;14.70;56.20
32139;DHT22;18644;48.700;9.210;2023-06-04T05:05:43;14.80;56.00
32139;DHT22;18644;48.700;9.210;2023-06-04T05:08:10;14.90;55.90
32139;DHT22;18644;48.700;9.210;2023-06-04T05:10:38;15.00;56.00
32139;DHT22;18644;48.700;9.210;2023-06-04T05:13:05;15.10;55.70
32139;DHT22;18644;48.700;9.210;2023-06-04T05:15:32;15.30;55.40
32139;DHT22;18644;48.700;9.210;2023-06-04T05:17:58;15.30;55.20
32139;DHT22;18644;48.700;9.210;2023-06-04T05:20:28;15.50;55.20
32139;DHT22;18644;48.700;9.210;2023-06-04T05:22:55;15.60;54.90
32139;DHT22;18644;48.700;9.210;2023-06-04T05:25:23;15.70;54.80
32139;DHT22;18644;48.700;9.210;2023-06-04T05:27:51;15.70;54.50
32139;DHT22;18644;48.700;9.210;2023-06-04T05:30:20;15.90;54.40
32139;DHT22;18644;48.700;9.210;2023-06-04T05:32:47;16.00;54.10
32139;DHT22;18644;48.700;9.210;2023-06-04T05:35:16;16.10;54.00
32139;DHT22;18644;48.700;9.210;2023-06-04T05:37:43;16.20;53.90
32139;DHT22;18644;48.700;9.210;2023-06-04T05:40:11;16.30;53.80
32139;DHT22;18644;48.700;9.210;2023-06-04T05:42:38;16.40;53.80
32139;DHT22;18644;48.700;9.210;2023-06-04T05:45:08;16.50;53.90
32139;DHT22;18644;48.700;9.210;2023-06-04T05:47:35;16.60;53.30
32139;DHT22;18644;48.700;9.210;2023-06-04T05:50:03;16.70;52.90
32139;DHT22;18644;48.700;9.210;2023-06-04T05:52:32;16.80;52.70
32139;DHT22;18644;48.700;9.210;2023-06-04T05:54:59;16.90;52.60
32139;DHT22;18644;48.700;9.210;2023-06-04T05:57:26;17.10;52.10
32139;DHT22;18644;48.700;9.210;2023-06-04T05:59:53;17.20;51.70
32139;DHT22;18644;48.700;9.210;2023-06-04T06:02:21;17.30;51.60
32139;DHT22;18644;48.700;9.210;2023-06-04T06:04:48;17.40;51.60
32139;DHT22;18644;48.700;9.210;2023-06-04T06:07:15;17.60;51.60
32139;DHT22;18644;48.700;9.210;2023-06-04T06:09:42;17.60;51.50
32139;DHT22;18644;48.700;9.210;2023-06-04T06:12:09;17.80;51.40
32139;DHT22;18644;48.700;9.210;2023-06-04T06:14:36;17.90;51.00
32139;DHT22;18644;48.700;9.210;2023-06-04T06:17:03;18.00;51.10
32139;DHT22;18644;48.700;9.210;2023-06-04T06:19:33;18.20;51.10
32139;DHT22;18644;48.700;9.210;2023-06-04T06:22:01;18.30;50.70
32139;DHT22;18644;48.700;9.210;2023-06-04T06:24:29;18.40;50.50
32139;DHT22;18644;48.700;9.210;2023-06-04T06:26:56;18.60;50.50
32139;DHT22;18644;48.700;9.210;2023-06-04T06:29:22;18.70;50.60
32139;DHT22;18644;48.700;9.210;2023-06-04T06:31:49;18.80;50.40
32139;DHT22;18644;48.700;9.210;2023-06-04T06:34:16;19.00;50.10
32139;DHT22;18644;48.700;9.210;2023-06-04T06:36:44;19.10;49.60
32139;DHT22;18644;48.700;9.210;2023-06-04T06:39:12;19.20;49.40
32139;DHT22;18644;48.700;9.210;2023-06-04T06:41:39;19.40;49.20
32139;DHT22;18644;48.700;9.210;2023-06-04T06:44:06;19.50;48.90
32139;DHT22;18644;48.700;9.210;2023-06-04T06:46:33;19.60;48.60
32139;DHT22;18644;48.700;9.210;2023-06-04T06:49:00;19.80;48.60
32139;DHT22;18644;48.700;9.210;2023-06-04T06:51:27;19.90;48.50
32139;DHT22;18644;48.700;9.210;2023-06-04T06:53:55;20.00;48.40
32139;DHT22;18644;48.700;9.210;2023-06-04T06:56:22;20.10;48.20
32139;DHT22;18644;48.700;9.210;2023-06-04T06:58:49;20.20;48.10
32139;DHT22;18644;48.700;9.210;2023-06-04T07:01:16;20.30;47.90
32139;DHT22;18644;48.700;9.210;2023-06-04T07:03:43;20.50;48.00
32139;DHT22;18644;48.700;9.210;2023-06-04T07:06:10;20.60;48.10
32139;DHT22;18644;48.700;9.210;2023-06-04T07:08:37;20.80;47.90
32139;DHT22;18644;48.700;9.210;2023-06-04T07:11:05;21.00;47.60
32139;DHT22;18644;48.700;9.210;2023-06-04T07:13:37;21.10;47.80
32139;DHT22;18644;48.700;9.210;2023-06-04T07:16:04;21.30;47.80
32139;DHT22;18644;48.700;9.210;2023-06-04T07:18:31;21.40;47.20
32139;DHT22;18644;48.700;9.210;2023-06-04T07:20:59;21.60;47.20
32139;DHT22;18644;48.700;9.210;2023-06-04T07:23:25;21.70;47.10
32139;DHT22;18644;48.700;9.210;2023-06-04T07:25:52;21.90;46.90
32139;DHT22;18644;48.700;9.210;2023-06-04T07:28:21;22.00;46.50
32139;DHT22;18644;48.700;9.210;2023-06-04T07:30:48;22.20;46.20
32139;DHT22;18644;48.700;9.210;2023-06-04T07:33:15;22.30;45.90
32139;DHT22;18644;48.700;9.210;2023-06-04T07:35:42;22.40;45.60
32139;DHT22;18644;48.700;9.210;2023-06-04T07:38:08;22.60;45.70
32139;DHT22;18644;48.700;9.210;2023-06-04T07:40:35;22.70;45.80
32139;DHT22;18644;48.700;9.210;2023-06-04T07:43:02;22.90;45.40
32139;DHT22;18644;48.700;9.210;2023-06-04T07:45:31;23.00;45.30
32139;DHT22;18644;48.700;9.210;2023-06-04T07:47:57;23.10;44.80
32139;DHT22;18644;48.700;9.210;2023-06-04T07:50:24;23.30;44.40
32139;DHT22;18644;48.700;9.210;2023-06-04T07:52:52;23.30;44.30
32139;DHT22;18644;48.700;9.210;2023-06-04T07:55:19;23.50;43.90
32139;DHT22;18644;48.700;9.210;2023-06-04T07:57:46;23.60;43.60
32139;DHT22;18644;48.700;9.210;2023-06-04T08:00:14;23.70;43.70
32139;DHT22;18644;48.700;9.210;2023-06-04T08:02:44;23.80;43.80
32139;DHT22;18644;48.700;9.210;2023-06-04T08:05:11;23.90;43.60
32139;DHT22;18644;48.700;9.210;2023-06-04T08:07:40;24.00;43.50
32139;DHT22;18644;48.700;9.210;2023-06-04T08:10:07;24.10;43.50
32139;DHT22;18644;48.700;9.210;2023-06-04T08:12:36;24.30;43.20
32139;DHT22;18644;48.700;9.210;2023-06-04T08:15:03;24.40;43.00
32139;DHT22;18644;48.700;9.210;2023-06-04T08:17:31;24.60;42.90
32139;DHT22;18644;48.700;9.210;2023-06-04T08:19:59;24.70;42.70
32139;DHT22;18644;48.700;9.210;2023-06-04T08:22:26;24.80;42.50
32139;DHT22;18644;48.700;9.210;2023-06-04T08:24:54;25.00;42.30
32139;DHT22;18644;48.700;9.210;2023-06-04T08:27:21;25.00;41.90
32139;DHT22;18644;48.700;9.210;2023-06-04T08:29:48;25.20;41.60
32139;DHT22;18644;48.700;9.210;2023-06-04T08:32:15;25.30;41.70
32139;DHT22;18644;48.700;9.210;2023-06-04T08:34:42;25.40;41.60
32139;DHT22;18644;48.700;9.210;2023-06-04T08:37:10;25.50;41.40
32139;DHT22;18644;48.700;9.210;2023-06-04T08:39:37;25.60;41.40
32139;DHT22;18644;48.700;9.210;2023-06-04T08:42:06;25.70;41.60
32139;DHT22;18644;48.700;9.210;2023-06-04T08:44:34;25.80;41.50
32139;DHT22;18644;48.700;9.210;2023-06-04T08:47:03;26.00;41.40
32139;DHT22;18644;48.700;9.210;2023-06-04T08:49:34;26.10;40.70
32139;DHT22;18644;48.700;9.210;2023-06-04T08:52:02;26.20;40.60
32139;DHT22;18644;48.700;9.210;2023-06-04T08:54:31;26.30;40.60
32139;DHT22;18644;48.700;9.210;2023-06-04T08:57:00;26.40;40.30
32139;DHT22;18644;48.700;9.210;2023-06-04T08:59:27;26.50;40.20
32139;DHT22;18644;48.700;9.210;2023-06-04T09:01:55;26.60;40.30
32139;DHT22;18644;48.700;9.210;2023-06-04T09:04:23;26.60;39.90
32139;DHT22;18644;48.700;9.210;2023-06-04T09:06:52;26.80;39.60
32139;DHT22;18644;48.700;9.210;2023-06-04T09:09:20;26.90;39.40
32139;DHT22;18644;48.700;9.210;2023-06-04T09:11:52;26.90;38.90
32139;DHT22;18644;48.700;9.210;2023-06-04T09:14:19;27.00;38.60
32139;DHT22;18644;48.700;9.210;2023-06-04T09:16:47;27.10;38.60
32139;DHT22;18644;48.700;9.210;2023-06-04T09:19:15;27.10;38.50
32139;DHT22;18644;48.700;9.210;2023-06-04T09:21:49;27.20;38.70
32139;DHT22;18644;48.700;9.210;2023-06-04T09:24:17;27.30;38.20
32139;DHT22;18644;48.700;9.210;2023-06-04T09:26:45;27.40;38.20
32139;DHT22;18644;48.700;9.210;2023-06-04T09:29:14;27.50;38.20
32139;DHT22;18644;48.700;9.210;2023-06-04T09:31:41;27.50;38.10
32139;DHT22;18644;48.700;9.210;2023-06-04T09:34:08;27.70;38.20
32139;DHT22;18644;48.700;9.210;2023-06-04T09:36:36;27.70;37.80
32139;DHT22;18644;48.700;9.210;2023-06-04T09:39:15;27.90;38.00
32139;DHT22;18644;48.700;9.210;2023-06-04T09:41:42;28.00;37.80
32139;DHT22;18644;48.700;9.210;2023-06-04T09:44:09;28.10;37.30
32139;DHT22;18644;48.700;9.210;2023-06-04T09:46:39;28.20;36.60
32139;DHT22;18644;48.700;9.210;2023-06-04T09:49:06;28.30;36.30
32139;DHT22;18644;48.700;9.210;2023-06-04T09:51:33;28.40;36.40
32139;DHT22;18644;48.700;9.210;2023-06-04T09:54:01;28.40;36.90
32139;DHT22;18644;48.700;9.210;2023-06-04T09:56:29;28.50;36.50
32139;DHT22;18644;48.700;9.210;2023-06-04T09:58:59;28.60;36.50
32139;DHT22;18644;48.700;9.210;2023-06-04T10:01:29;28.60;36.90
32139;DHT22;18644;48.700;9.210;2023-06-04T10:04:02;28.80;36.80
32139;DHT22;18644;48.700;9.210;2023-06-04T10:06:33;28.80;36.10
32139;DHT22;18644;48.700;9.210;2023-06-04T10:09:05;28.90;35.70
32139;DHT22;18644;48.700;9.210;2023-06-04T10:11:35;28.90;35.90
32139;DHT22;18644;48.700;9.210;2023-06-04T10:14:03;29.00;36.20
32139;DHT22;18644;48.700;9.210;2023-06-04T10:16:37;29.10;36.00
32139;DHT22;18644;48.700;9.210;2023-06-04T10:19:07;29.20;35.60
32139;DHT22;18644;48.700;9.210;2023-06-04T10:21:34;29.30;35.30
32139;DHT22;18644;48.700;9.210;2023-06-04T10:24:03;29.40;34.90
32139;DHT22;18644;48.700;9.210;2023-06-04T10:26:32;29.40;35.20
32139;DHT22;18644;48.700;9.210;2023-06-04T10:29:01;29.50;35.30
32139;DHT22;18644;48.700;9.210;2023-06-04T10:31:29;29.60;35.50
32139;DHT22;18644;48.700;9.210;2023-06-04T10:33:56;29.60;34.50
32139;DHT22;18644;48.700;9.210;2023-06-04T10:36:25;29.70;33.80
32139;DHT22;18644;48.700;9.210;2023-06-04T10:38:53;29.70;34.10
32139;DHT22;18644;48.700;9.210;2023-06-04T10:41:21;29.80;34.70
32139;DHT22;18644;48.700;9.210;2023-06-04T10:43:49;29.90;34.80
32139;DHT22;18644;48.700;9.210;2023-06-04T10:46:18;29.90;34.00
32139;DHT22;18644;48.700;9.210;2023-06-04T10:48:47;30.00;33.90
32139;DHT22;18644;48.700;9.210;2023-06-04T10:51:15;30.10;33.60
32139;DHT22;18644;48.700;9.210;2023-06-04T10:53:44;30.10;33.20
32139;DHT22;18644;48.700;9.210;2023-06-04T10:56:11;30.20;32.70
32139;DHT22;18644;48.700;9.210;2023-06-04T10:58:38;30.20;32.40
32139;DHT22;18644;48.700;9.210;2023-06-04T11:01:06;30.20;32.30
32139;DHT22;18644;48.700;9.210;2023-06-04T11:03:37;30.30;32.70
32139;DHT22;18644;48.700;9.210;2023-06-04T11:06:15;30.30;32.80
32139;DHT22;18644;48.700;9.210;2023-06-04T11:08:44;30.40;32.70
32139;DHT22;18644;48.700;9.210;2023-06-04T11:11:11;30.40;32.70
32139;DHT22;18644;48.700;9.210;2023-06-04T11:13:39;30.50;33.10
32139;DHT22;18644;48.700;9.210;2023-06-04T11:16:15;30.60;33.90
32139;DHT22;18644;48.700;9.210;2023-06-04T11:18:43;30.70;34.00
32139;DHT22;18644;48.700;9.210;2023-06-04T11:21:11;30.90;34.30
32139;DHT22;18644;48.700;9.210;2023-06-04T11:23:40;31.00;33.20
32139;DHT22;18644;48.700;9.210;2023-06-04T11:26:09;31.00;32.40
32139;DHT22;18644;48.700;9.210;2023-06-04T11:28:36;31.10;31.90
32139;DHT22;18644;48.700;9.210;2023-06-04T11:31:03;31.10;31.50
32139;DHT22;18644;48.700;9.210;2023-06-04T11:33:41;31.20;31.10
32139;DHT22;18644;48.700;9.210;2023-06-04T11:36:09;31.20;30.50
32139;DHT22;18644;48.700;9.210;2023-06-04T11:38:36;31.10;31.70
32139;DHT22;18644;48.700;9.210;2023-06-04T11:41:03;31.10;30.80
32139;DHT22;18644;48.700;9.210;2023-06-04T11:43:33;31.10;30.20
32139;DHT22;18644;48.700;9.210;2023-06-04T11:46:05;31.10;29.60
32139;DHT22;18644;48.700;9.210;2023-06-04T11:48:33;31.10;29.60
32139;DHT22;18644;48.700;9.210;2023-06-04T11:51:06;31.10;29.20
32139;DHT22;18644;48.700;9.210;2023-06-04T11:53:35;31.00;29.80
32139;DHT22;18644;48.700;9.210;2023-06-04T11:56:03;31.00;30.40
32139;DHT22;18644;48.700;9.210;2023-06-04T11:58:32;31.00;30.80
32139;DHT22;18644;48.700;9.210;2023-06-04T12:01:00;31.10;30.60
32139;DHT22;18644;48.700;9.210;2023-06-04T12:03:37;31.20;30.70
32139;DHT22;18644;48.700;9.210;2023-06-04T12:06:12;31.30;30.60
32139;DHT22;18644;48.700;9.210;2023-06-04T12:08:48;31.40;30.00
32139;DHT22;18644;48.700;9.210;2023-06-04T12:11:25;31.60;29.90
32139;DHT22;18644;48.700;9.210;2023-06-04T12:13:59;31.70;30.20
32139;DHT22;18644;48.700;9.210;2023-06-04T12:16:27;31.90;30.00
32139;DHT22;18644;48.700;9.210;2023-06-04T12:19:05;32.00;30.00
32139;DHT22;18644;48.700;9.210;2023-06-04T12:21:33;32.10;29.50
32139;DHT22;18644;48.700;9.210;2023-06-04T12:24:08;32.20;29.40
32139;DHT22;18644;48.700;9.210;2023-06-04T12:26:37;32.20;28.60
32139;DHT22;18644;48.700;9.210;2023-06-04T12:29:12;32.20;28.50
32139;DHT22;18644;48.700;9.210;2023-06-04T12:31:41;32.20;28.30
32139;DHT22;18644;48.700;9.210;2023-06-04T12:34:10;32.20;28.30
32139;DHT22;18644;48.700;9.210;2023-06-04T12:36:38;32.00;28.00
32139;DHT22;18644;48.700;9.210;2023-06-04T12:39:06;31.80;28.20
32139;DHT22;18644;48.700;9.210;2023-06-04T12:41:34;31.70;28.10
32139;DHT22;18644;48.700;9.210;2023-06-04T12:44:01;31.70;28.10
32139;DHT22;18644;48.700;9.210;2023-06-04T12:46:30;31.60;28.30
32139;DHT22;18644;48.700;9.210;2023-06-04T12:48:57;31.50;28.60
32139;DHT22;18644;48.700;9.210;2023-06-04T12:51:24;31.50;28.50
32139;DHT22;18644;48.700;9.210;2023-06-04T12:53:50;31.50;29.10
32139;DHT22;18644;48.700;9.210;2023-06-04T12:56:18;31.60;29.10
32139;DHT22;18644;48.700;9.210;2023-06-04T12:58:45;31.80;28.60
32139;DHT22;18644;48.700;9.210;2023-06-04T13:01:12;31.80;27.70
32139;DHT22;18644;48.700;9.210;2023-06-04T13:03:41;31.80;27.60
32139;DHT22;18644;48.700;9.210;2023-06-04T13:06:08;31.80;28.20
32139;DHT22;18644;48.700;9.210;2023-06-04T13:08:36;31.80;28.10
32139;DHT22;18644;48.700;9.210;2023-06-04T13:11:03;31.90;28.30
32139;DHT22;18644;48.700;9.210;2023-06-04T13:13:31;32.00;28.40
32139;DHT22;18644;48.700;9.210;2023-06-04T13:15:57;32.00;28.20
32139;DHT22;18644;48.700;9.210;2023-06-04T13:18:25;32.10;28.40
32139;DHT22;18644;48.700;9.210;2023-06-04T13:20:54;32.20;27.90
32139;DHT22;18644;48.700;9.210;2023-06-04T13:23:21;32.30;28.60
32139;DHT22;18644;48.700;9.210;2023-06-04T13:25:49;32.30;28.10
32139;DHT22;18644;48.700;9.210;2023-06-04T13:28:16;32.40;28.90
32139;DHT22;18644;48.700;9.210;2023-06-04T13:30:44;32.60;27.80
32139;DHT22;18644;48.700;9.210;2023-06-04T13:33:11;32.60;27.60
32139;DHT22;18644;48.700;9.210;2023-06-04T13:35:38;32.60;27.40
32139;DHT22;18644;48.700;9.210;2023-06-04T13:38:09;32.70;27.20
32139;DHT22;18644;48.700;9.210;2023-06-04T13:40:38;32.80;27.00
32139;DHT22;18644;48.700;9.210;2023-06-04T13:43:05;32.80;27.10
32139;DHT22;18644;48.700;9.210;2023-06-04T13:45:34;32.80;26.50
32139;DHT22;18644;48.700;9.210;2023-06-04T13:48:01;32.80;26.40
32139;DHT22;18644;48.700;9.210;2023-06-04T13:50:31;32.80;26.80
32139;DHT22;18644;48.700;9.210;2023-06-04T13:52:58;32.90;26.90
32139;DHT22;18644;48.700;9.210;2023-06-04T13:55:26;32.90;26.90
32139;DHT22;18644;48.700;9.210;2023-06-04T13:57:53;33.00;26.70
32139;DHT22;18644;48.700;9.210;2023-06-04T14:00:20;33.10;26.70
32139;DHT22;18644;48.700;9.210;2023-06-04T14:02:47;33.20;26.50
32139;DHT22;18644;48.700;9.210;2023-06-04T14:05:14;33.20;26.40
32139;DHT22;18644;48.700;9.210;2023-06-04T14:07:42;33.20;26.30
32139;DHT22;18644;48.700;9.210;2023-06-04T14:10:10;33.20;26.00
32139;DHT22;18644;48.700;9.210;2023-06-04T14:12:39;33.20;26.10
32139;DHT22;18644;48.700;9.210;2023-06-04T14:15:07;33.10;25.70
32139;DHT22;18644;48.700;9.210;2023-06-04T14:17:36;33.10;25.50
32139;DHT22;18644;48.700;9.210;2023-06-04T14:20:05;33.10;25.50
32139;DHT22;18644;48.700;9.210;2023-06-04T14:22:34;33.10;24.90
32139;DHT22;18644;48.700;9.210;2023-06-04T14:25:01;33.10;24.90
32139;DHT22;18644;48.700;9.210;2023-06-04T14:27:29;33.00;25.20
32139;DHT22;18644;48.700;9.210;2023-06-04T14:29:57;33.00;25.20
32139;DHT22;18644;48.700;9.210;2023-06-04T14:32:24;33.10;25.00
32139;DHT22;18644;48.700;9.210;2023-06-04T14:34:51;33.00;24.00
32139;DHT22;18644;48.700;9.210;2023-06-04T14:37:19;33.00;24.10
32139;DHT22;18644;48.700;9.210;2023-06-04T14:39:46;32.80;24.40
32139;DHT22;18644;48.700;9.210;2023-06-04T14:42:13;32.80;24.70
32139;DHT22;18644;48.700;9.210;2023-06-04T14:44:40;32.70;24.90
32139;DHT22;18644;48.700;9.210;2023-06-04T14:47:10;32.70;25.40
32139;DHT22;18644;48.700;9.210;2023-06-04T14:49:37;32.70;25.20
32139;DHT22;18644;48.700;9.210;2023-06-04T14:52:04;32.70;25.20
32139;DHT22;18644;48.700;9.210;2023-06-04T14:54:32;32.80;25.40
32139;DHT22;18644;48.700;9.210;2023-06-04T14:57:00;32.80;24.90
32139;DHT22;18644;48.700;9.210;2023-06-04T14:59:28;32.80;25.00
32139;DHT22;18644;48.700;9.210;2023-06-04T15:01:55;32.90;25.80
32139;DHT22;18644;48.700;9.210;2023-06-04T15:04:24;33.00;26.00
32139;DHT22;18644;48.700;9.210;2023-06-04T15:06:50;33.00;25.20
32139;DHT22;18644;48.700;9.210;2023-06-04T15:09:17;33.00;25.20
32139;DHT22;18644;48.700;9.210;2023-06-04T15:11:44;33.10;24.90
32139;DHT22;18644;48.700;9.210;2023-06-04T15:14:11;33.10;24.80
32139;DHT22;18644;48.700;9.210;2023-06-04T15:16:38;33.10;25.00
32139;DHT22;18644;48.700;9.210;2023-06-04T15:19:05;33.20;25.40
32139;DHT22;18644;48.700;9.210;2023-06-04T15:21:35;33.20;25.70
32139;DHT22;18644;48.700;9.210;2023-06-04T15:24:02;33.30;25.80
32139;DHT22;18644;48.700;9.210;2023-06-04T15:26:29;33.40;25.50
32139;DHT22;18644;48.700;9.210;2023-06-04T15:28:56;33.50;24.90
32139;DHT22;18644;48.700;9.210;2023-06-04T15:31:23;33.50;24.50
32139;DHT22;18644;48.700;9.210;2023-06-04T15:33:50;33.60;24.40
32139;DHT22;18644;48.700;9.210;2023-06-04T15:36:17;33.60;24.10